RYR7152 LPPR-LEXJ
Flight info
| Callsign | RYR7152 |
|---|---|
| Flight time | 0h 47m |
| Altitude | 34000 |
| Route | BELDU DCT CANAR DCT NUBLO DCT RONSI DCT OBETO |
| Aircraft | B738/M-SDE2E3FGHIRWXY/LB1 |
Departure
| Time | 2026-05-01 11:40 |
|---|---|
| Airport | Francisco de Sá Carneiro Airport (LPPR) |
Arrival
| Time | 2026-05-01 12:28 |
|---|---|
| Airport | Seve Ballesteros-Santander Airport (LEXJ) |
| Time | Latitude | Longitude | Altitude | Speed | Heading |
|---|---|---|---|---|---|
| 2026-05-01 11:16 | 41.23687 | -8.67538 | 237 ft | 0 kts | 258° |
| 2026-05-01 11:32 | 41.23687 | -8.67537 | 237 ft | 1 kts | 258° |
| 2026-05-01 11:33 | 41.23690 | -8.67521 | 237 ft | 2 kts | 258° |
| 2026-05-01 11:33 | 41.23692 | -8.67507 | 237 ft | 2 kts | 258° |
| 2026-05-01 11:33 | 41.23696 | -8.67485 | 237 ft | 3 kts | 250° |
| 2026-05-01 11:33 | 41.23710 | -8.67455 | 237 ft | 3 kts | 221° |
| 2026-05-01 11:34 | 41.23718 | -8.67447 | 237 ft | 0 kts | 206° |
| 2026-05-01 11:34 | 41.23719 | -8.67448 | 237 ft | 1 kts | 168° |
| 2026-05-01 11:34 | 41.23728 | -8.67451 | 237 ft | 0 kts | 168° |
| 2026-05-01 11:36 | 41.23726 | -8.67450 | 237 ft | 1 kts | 168° |
| 2026-05-01 11:36 | 41.23710 | -8.67446 | 237 ft | 3 kts | 168° |
| 2026-05-01 11:36 | 41.23681 | -8.67440 | 237 ft | 5 kts | 179° |
| 2026-05-01 11:36 | 41.23642 | -8.67460 | 237 ft | 7 kts | 224° |
| 2026-05-01 11:37 | 41.23624 | -8.67524 | 237 ft | 9 kts | 258° |
| 2026-05-01 11:37 | 41.23611 | -8.67609 | 237 ft | 9 kts | 258° |
| 2026-05-01 11:37 | 41.23604 | -8.67655 | 237 ft | 4 kts | 259° |
| 2026-05-01 11:37 | 41.23602 | -8.67667 | 237 ft | 0 kts | 259° |
| 2026-05-01 11:38 | 41.23599 | -8.67690 | 237 ft | 6 kts | 259° |
| 2026-05-01 11:38 | 41.23587 | -8.67777 | 237 ft | 9 kts | 267° |
| 2026-05-01 11:39 | 41.23623 | -8.67816 | 237 ft | 4 kts | 347° |
| 2026-05-01 11:39 | 41.23632 | -8.67819 | 237 ft | 0 kts | 349° |
| 2026-05-01 11:39 | 41.23637 | -8.67820 | 237 ft | 7 kts | 349° |
| 2026-05-01 11:39 | 41.23904 | -8.67890 | 237 ft | 74 kts | 349° |
| 2026-05-01 11:40 | 41.24628 | -8.68080 | 237 ft | 134 kts | 349° |
| 2026-05-01 11:40 | 41.25670 | -8.68354 | 476 ft | 161 kts | 349° |
| 2026-05-01 11:40 | 41.26775 | -8.68642 | 1210 ft | 162 kts | 348° |
| 2026-05-01 11:40 | 41.27891 | -8.68933 | 1912 ft | 166 kts | 348° |
| 2026-05-01 11:41 | 41.29057 | -8.69245 | 2599 ft | 174 kts | 348° |
| 2026-05-01 11:41 | 41.30276 | -8.69544 | 3288 ft | 186 kts | 349° |
| 2026-05-01 11:41 | 41.31595 | -8.69873 | 3993 ft | 199 kts | 348° |
| 2026-05-01 11:41 | 41.33025 | -8.70245 | 4608 ft | 221 kts | 348° |
| 2026-05-01 11:42 | 41.34616 | -8.70663 | 5283 ft | 242 kts | 348° |
| 2026-05-01 11:42 | 41.36324 | -8.71102 | 6034 ft | 261 kts | 349° |
| 2026-05-01 11:42 | 41.38177 | -8.71580 | 6784 ft | 280 kts | 349° |
| 2026-05-01 11:42 | 41.40165 | -8.71790 | 7504 ft | 298 kts | 5° |
| 2026-05-01 11:43 | 41.42200 | -8.70968 | 8251 ft | 313 kts | 27° |
| 2026-05-01 11:43 | 41.43918 | -8.69166 | 8983 ft | 325 kts | 49° |
| 2026-05-01 11:43 | 41.45108 | -8.66536 | 9726 ft | 336 kts | 69° |
| 2026-05-01 11:44 | 41.45595 | -8.60231 | 11225 ft | 355 kts | 93° |
| 2026-05-01 11:44 | 41.45479 | -8.56888 | 11965 ft | 364 kts | 95° |
| 2026-05-01 11:44 | 41.45313 | -8.53517 | 12690 ft | 371 kts | 96° |
| 2026-05-01 11:44 | 41.45121 | -8.50029 | 13424 ft | 378 kts | 96° |
| 2026-05-01 11:45 | 41.44919 | -8.46514 | 14152 ft | 384 kts | 96° |
| 2026-05-01 11:45 | 41.44708 | -8.42969 | 14875 ft | 388 kts | 97° |
| 2026-05-01 11:45 | 41.44489 | -8.39346 | 15607 ft | 391 kts | 97° |
| 2026-05-01 11:45 | 41.44278 | -8.35742 | 16330 ft | 393 kts | 96° |
| 2026-05-01 11:46 | 41.44069 | -8.32092 | 17058 ft | 394 kts | 97° |
| 2026-05-01 11:46 | 41.43865 | -8.28463 | 17780 ft | 395 kts | 97° |
| 2026-05-01 11:46 | 41.43664 | -8.24801 | 18508 ft | 395 kts | 97° |
| 2026-05-01 11:46 | 41.43466 | -8.21138 | 19192 ft | 395 kts | 96° |
| 2026-05-01 11:47 | 41.43268 | -8.17457 | 19723 ft | 399 kts | 96° |
| 2026-05-01 11:47 | 41.43073 | -8.13789 | 20222 ft | 403 kts | 97° |
| 2026-05-01 11:47 | 41.42868 | -8.10024 | 20727 ft | 406 kts | 97° |
| 2026-05-01 11:47 | 41.42650 | -8.06274 | 21226 ft | 409 kts | 97° |
| 2026-05-01 11:48 | 41.42417 | -8.02477 | 21729 ft | 411 kts | 97° |
| 2026-05-01 11:48 | 41.42178 | -7.98661 | 22232 ft | 412 kts | 97° |
| 2026-05-01 11:48 | 41.41939 | -7.94892 | 22745 ft | 413 kts | 97° |
| 2026-05-01 11:48 | 41.41694 | -7.91066 | 23499 ft | 415 kts | 97° |
| 2026-05-01 11:49 | 41.41447 | -7.87211 | 24337 ft | 415 kts | 98° |
| 2026-05-01 11:49 | 41.41207 | -7.83405 | 25178 ft | 414 kts | 98° |
| 2026-05-01 11:49 | 41.40971 | -7.79608 | 26022 ft | 412 kts | 98° |
| 2026-05-01 11:49 | 41.40733 | -7.75788 | 26876 ft | 409 kts | 98° |
| 2026-05-01 11:50 | 41.40484 | -7.72057 | 27717 ft | 405 kts | 98° |
| 2026-05-01 11:50 | 41.40226 | -7.68315 | 28569 ft | 400 kts | 98° |
| 2026-05-01 11:50 | 41.39974 | -7.64694 | 29403 ft | 394 kts | 99° |
| 2026-05-01 11:50 | 41.39726 | -7.61081 | 30249 ft | 387 kts | 99° |
| 2026-05-01 11:51 | 41.39471 | -7.57538 | 31095 ft | 378 kts | 99° |
| 2026-05-01 11:51 | 41.39217 | -7.54107 | 31932 ft | 369 kts | 99° |
| 2026-05-01 11:51 | 41.39227 | -7.50744 | 32770 ft | 363 kts | 83° |
| 2026-05-01 11:51 | 41.39980 | -7.47613 | 33622 ft | 352 kts | 67° |
| 2026-05-01 11:52 | 41.41122 | -7.44740 | 34228 ft | 350 kts | 61° |
| 2026-05-01 11:52 | 41.42438 | -7.41939 | 34244 ft | 364 kts | 58° |
| 2026-05-01 11:52 | 41.43871 | -7.39095 | 34216 ft | 380 kts | 57° |
| 2026-05-01 11:52 | 41.45413 | -7.36121 | 34198 ft | 394 kts | 56° |
| 2026-05-01 11:53 | 41.46997 | -7.33099 | 34191 ft | 408 kts | 56° |
| 2026-05-01 11:53 | 41.48665 | -7.29928 | 34189 ft | 422 kts | 56° |
| 2026-05-01 11:53 | 41.50364 | -7.26702 | 34188 ft | 434 kts | 56° |
| 2026-05-01 11:53 | 41.52139 | -7.23330 | 34187 ft | 446 kts | 56° |
| 2026-05-01 11:54 | 41.53943 | -7.19893 | 34186 ft | 458 kts | 56° |
| 2026-05-01 11:54 | 41.55780 | -7.16388 | 34186 ft | 469 kts | 56° |
| 2026-05-01 11:54 | 41.59582 | -7.09114 | 34185 ft | 483 kts | 56° |
| 2026-05-01 11:55 | 41.63432 | -7.01760 | 34185 ft | 488 kts | 56° |
| 2026-05-01 11:55 | 41.67343 | -6.94299 | 34185 ft | 490 kts | 56° |
| 2026-05-01 11:56 | 41.71271 | -6.86790 | 34186 ft | 491 kts | 55° |
| 2026-05-01 11:56 | 41.75157 | -6.79323 | 34187 ft | 491 kts | 56° |
| 2026-05-01 11:57 | 41.79059 | -6.71806 | 34188 ft | 491 kts | 56° |
| 2026-05-01 11:57 | 41.82939 | -6.64275 | 34189 ft | 491 kts | 56° |
| 2026-05-01 11:58 | 41.86814 | -6.56747 | 34190 ft | 490 kts | 56° |
| 2026-05-01 11:59 | 41.92595 | -6.45451 | 34192 ft | 490 kts | 56° |
| 2026-05-01 11:59 | 41.96451 | -6.37877 | 34193 ft | 489 kts | 56° |
| 2026-05-01 12:00 | 42.02178 | -6.26581 | 34194 ft | 489 kts | 56° |
| 2026-05-01 12:01 | 42.07919 | -6.15214 | 34195 ft | 489 kts | 56° |
| 2026-05-01 12:01 | 42.11735 | -6.07639 | 34196 ft | 488 kts | 56° |
| 2026-05-01 12:02 | 42.15529 | -6.00093 | 34196 ft | 488 kts | 56° |
| 2026-05-01 12:02 | 42.19352 | -5.92479 | 34196 ft | 488 kts | 56° |
| 2026-05-01 12:03 | 42.23143 | -5.84908 | 34197 ft | 488 kts | 56° |
| 2026-05-01 12:03 | 42.26967 | -5.77299 | 34197 ft | 488 kts | 56° |
| 2026-05-01 12:04 | 42.30797 | -5.69795 | 34198 ft | 488 kts | 55° |
| 2026-05-01 12:04 | 42.34659 | -5.62259 | 34199 ft | 488 kts | 55° |
| 2026-05-01 12:05 | 42.38515 | -5.54725 | 34199 ft | 487 kts | 55° |
| 2026-05-01 12:05 | 42.42394 | -5.47118 | 33733 ft | 488 kts | 55° |
| 2026-05-01 12:05 | 42.44279 | -5.43408 | 33249 ft | 475 kts | 55° |
| 2026-05-01 12:06 | 42.46132 | -5.39745 | 32744 ft | 461 kts | 55° |
| 2026-05-01 12:06 | 42.47902 | -5.36230 | 32245 ft | 450 kts | 55° |
| 2026-05-01 12:06 | 42.49653 | -5.32737 | 31739 ft | 442 kts | 55° |
| 2026-05-01 12:06 | 42.51346 | -5.29349 | 31242 ft | 436 kts | 55° |
| 2026-05-01 12:07 | 42.53040 | -5.25945 | 30738 ft | 430 kts | 55° |
| 2026-05-01 12:07 | 42.54695 | -5.22615 | 30239 ft | 426 kts | 55° |
| 2026-05-01 12:07 | 42.56359 | -5.19303 | 29737 ft | 422 kts | 54° |
| 2026-05-01 12:07 | 42.58019 | -5.16025 | 29234 ft | 418 kts | 54° |
| 2026-05-01 12:08 | 42.59651 | -5.12821 | 28738 ft | 414 kts | 54° |
| 2026-05-01 12:08 | 42.61295 | -5.09608 | 28234 ft | 410 kts | 55° |
| 2026-05-01 12:08 | 42.62892 | -5.06460 | 27738 ft | 406 kts | 55° |
| 2026-05-01 12:08 | 42.64616 | -5.03414 | 27234 ft | 402 kts | 45° |
| 2026-05-01 12:09 | 42.66760 | -5.01055 | 26752 ft | 396 kts | 33° |
| 2026-05-01 12:09 | 42.69118 | -4.99128 | 26263 ft | 393 kts | 27° |
| 2026-05-01 12:09 | 42.71548 | -4.97428 | 25767 ft | 389 kts | 25° |
| 2026-05-01 12:09 | 42.73967 | -4.95866 | 25273 ft | 386 kts | 24° |
| 2026-05-01 12:10 | 42.76382 | -4.94372 | 24776 ft | 382 kts | 23° |
| 2026-05-01 12:10 | 42.81220 | -4.91474 | 23773 ft | 376 kts | 22° |
| 2026-05-01 12:10 | 42.83625 | -4.90056 | 23270 ft | 373 kts | 22° |
| 2026-05-01 12:11 | 42.88337 | -4.87284 | 22273 ft | 368 kts | 23° |
| 2026-05-01 12:11 | 42.90680 | -4.85885 | 21772 ft | 366 kts | 23° |
| 2026-05-01 12:11 | 42.93022 | -4.84479 | 21268 ft | 364 kts | 23° |
| 2026-05-01 12:12 | 42.95316 | -4.83097 | 20772 ft | 362 kts | 23° |
| 2026-05-01 12:12 | 42.97620 | -4.81706 | 20270 ft | 360 kts | 24° |
| 2026-05-01 12:12 | 42.99917 | -4.80317 | 19767 ft | 358 kts | 23° |
| 2026-05-01 12:12 | 43.02166 | -4.78953 | 19271 ft | 355 kts | 23° |
| 2026-05-01 12:13 | 43.04427 | -4.77579 | 18769 ft | 352 kts | 23° |
| 2026-05-01 12:13 | 43.06664 | -4.76217 | 18266 ft | 350 kts | 24° |
| 2026-05-01 12:13 | 43.08852 | -4.74882 | 17771 ft | 347 kts | 23° |
| 2026-05-01 12:13 | 43.11051 | -4.73539 | 17270 ft | 344 kts | 24° |
| 2026-05-01 12:14 | 43.13243 | -4.72201 | 16766 ft | 341 kts | 24° |
| 2026-05-01 12:14 | 43.15405 | -4.70882 | 16265 ft | 339 kts | 24° |
| 2026-05-01 12:14 | 43.17551 | -4.69575 | 15765 ft | 336 kts | 24° |
| 2026-05-01 12:14 | 43.19656 | -4.68294 | 15269 ft | 333 kts | 24° |
| 2026-05-01 12:15 | 43.21782 | -4.67002 | 14765 ft | 330 kts | 24° |
| 2026-05-01 12:15 | 43.23883 | -4.65726 | 14262 ft | 327 kts | 24° |
| 2026-05-01 12:15 | 43.25944 | -4.64477 | 13764 ft | 324 kts | 24° |
| 2026-05-01 12:15 | 43.27990 | -4.63239 | 13267 ft | 322 kts | 24° |
| 2026-05-01 12:16 | 43.30032 | -4.61994 | 12765 ft | 319 kts | 24° |
| 2026-05-01 12:16 | 43.32051 | -4.60741 | 12261 ft | 316 kts | 24° |
| 2026-05-01 12:16 | 43.34026 | -4.59506 | 11766 ft | 313 kts | 25° |
| 2026-05-01 12:16 | 43.36014 | -4.58262 | 11262 ft | 310 kts | 25° |
| 2026-05-01 12:17 | 43.37957 | -4.57048 | 10765 ft | 308 kts | 25° |
| 2026-05-01 12:17 | 43.39900 | -4.55837 | 10263 ft | 305 kts | 25° |
| 2026-05-01 12:17 | 43.41777 | -4.54524 | 9753 ft | 301 kts | 35° |
| 2026-05-01 12:17 | 43.43217 | -4.52463 | 9249 ft | 296 kts | 58° |
| 2026-05-01 12:18 | 43.44094 | -4.49953 | 8793 ft | 292 kts | 70° |
| 2026-05-01 12:18 | 43.44717 | -4.47333 | 8425 ft | 281 kts | 75° |
| 2026-05-01 12:18 | 43.45224 | -4.44794 | 8048 ft | 272 kts | 77° |
| 2026-05-01 12:18 | 43.45688 | -4.42303 | 7669 ft | 264 kts | 77° |
| 2026-05-01 12:19 | 43.46128 | -4.39875 | 7283 ft | 258 kts | 77° |
| 2026-05-01 12:19 | 43.46555 | -4.37487 | 6908 ft | 253 kts | 78° |
| 2026-05-01 12:19 | 43.46972 | -4.35178 | 6544 ft | 250 kts | 78° |
| 2026-05-01 12:19 | 43.47394 | -4.32862 | 6178 ft | 246 kts | 78° |
| 2026-05-01 12:20 | 43.47800 | -4.30642 | 5922 ft | 237 kts | 78° |
| 2026-05-01 12:20 | 43.48198 | -4.28473 | 5668 ft | 229 kts | 77° |
| 2026-05-01 12:20 | 43.48587 | -4.26363 | 5412 ft | 222 kts | 77° |
| 2026-05-01 12:20 | 43.48956 | -4.24347 | 5159 ft | 216 kts | 77° |
| 2026-05-01 12:21 | 43.49319 | -4.22355 | 4905 ft | 211 kts | 78° |
| 2026-05-01 12:21 | 43.49670 | -4.20432 | 4653 ft | 206 kts | 77° |
| 2026-05-01 12:21 | 43.50014 | -4.18532 | 4399 ft | 202 kts | 77° |
| 2026-05-01 12:21 | 43.50352 | -4.16661 | 4148 ft | 198 kts | 78° |
| 2026-05-01 12:22 | 43.50546 | -4.14812 | 3892 ft | 194 kts | 88° |
| 2026-05-01 12:22 | 43.50529 | -4.13582 | 3727 ft | 191 kts | 94° |
| 2026-05-01 12:22 | 43.50263 | -4.11234 | 3455 ft | 181 kts | 102° |
| 2026-05-01 12:22 | 43.50062 | -4.10122 | 3318 ft | 178 kts | 104° |
| 2026-05-01 12:23 | 43.49586 | -4.07958 | 3051 ft | 177 kts | 107° |
| 2026-05-01 12:23 | 43.49321 | -4.06874 | 2918 ft | 176 kts | 108° |
| 2026-05-01 12:23 | 43.48920 | -4.05306 | 2754 ft | 175 kts | 108° |
| 2026-05-01 12:23 | 43.48371 | -4.03218 | 2554 ft | 174 kts | 109° |
| 2026-05-01 12:24 | 43.48095 | -4.02176 | 2452 ft | 174 kts | 109° |
| 2026-05-01 12:24 | 43.47677 | -4.00611 | 2323 ft | 171 kts | 109° |
| 2026-05-01 12:24 | 43.47272 | -3.99099 | 2165 ft | 165 kts | 109° |
| 2026-05-01 12:24 | 43.46882 | -3.97639 | 1981 ft | 162 kts | 109° |
| 2026-05-01 12:25 | 43.46496 | -3.96191 | 1799 ft | 160 kts | 109° |
| 2026-05-01 12:25 | 43.45739 | -3.93358 | 1460 ft | 151 kts | 108° |
| 2026-05-01 12:25 | 43.45390 | -3.92053 | 1285 ft | 138 kts | 108° |
| 2026-05-01 12:26 | 43.45061 | -3.90817 | 1104 ft | 138 kts | 107° |
| 2026-05-01 12:26 | 43.44400 | -3.88326 | 759 ft | 140 kts | 109° |
| 2026-05-01 12:26 | 43.44068 | -3.87080 | 587 ft | 139 kts | 109° |
| 2026-05-01 12:27 | 43.43731 | -3.85823 | 415 ft | 140 kts | 110° |
| 2026-05-01 12:27 | 43.43062 | -3.83322 | 83 ft | 136 kts | 110° |
| 2026-05-01 12:28 | 43.42541 | -3.81378 | 25 ft | 59 kts | 110° |
| 2026-05-01 12:28 | 43.42426 | -3.80950 | 25 ft | 40 kts | 110° |
| 2026-05-01 12:28 | 43.42320 | -3.80679 | 25 ft | 4 kts | 111° |
| 2026-05-01 12:29 | 43.42322 | -3.80651 | 25 ft | 2 kts | 47° |
| 2026-05-01 12:29 | 43.42348 | -3.80666 | 25 ft | 8 kts | 304° |
| 2026-05-01 12:29 | 43.42427 | -3.80952 | 25 ft | 23 kts | 290° |
| 2026-05-01 12:30 | 43.42472 | -3.81303 | 25 ft | 9 kts | 199° |
| 2026-05-01 12:30 | 43.42397 | -3.81343 | 25 ft | 14 kts | 214° |
| 2026-05-01 12:30 | 43.42397 | -3.81470 | 25 ft | 16 kts | 290° |
| 2026-05-01 12:31 | 43.42441 | -3.81635 | 25 ft | 21 kts | 290° |
| 2026-05-01 12:31 | 43.42496 | -3.81841 | 25 ft | 25 kts | 290° |
| 2026-05-01 12:31 | 43.42538 | -3.82018 | 25 ft | 13 kts | 265° |
| 2026-05-01 12:31 | 43.42486 | -3.82065 | 25 ft | 9 kts | 200° |
| 2026-05-01 12:32 | 43.42414 | -3.82101 | 25 ft | 12 kts | 200° |
| 2026-05-01 12:32 | 43.42416 | -3.82237 | 25 ft | 11 kts | 290° |
| 2026-05-01 12:32 | 43.42445 | -3.82350 | 25 ft | 14 kts | 290° |
| 2026-05-01 12:33 | 43.42449 | -3.82407 | 25 ft | 2 kts | 220° |
| 2026-05-01 12:33 | 43.42434 | -3.82415 | 25 ft | 2 kts | 200° |
| 2026-05-01 12:33 | 43.42422 | -3.82421 | 25 ft | 0 kts | 200° |